Time;durP1;ratioP1;P1;durP2;ratioP2;P2;SDS_P1;SDS_P2;PMS_P1;PMS_P2;Temp;Humidity;BMP_temperature;BMP_pressure;BME280_temperature;BME280_humidity;BME280_pressure;Samples;Min_cycle;Max_cycle;Signal;HPM_P1;HPM_P2
2022/08/25 00:01:36;;;;;;;8.38;5.47;;;;;;;15.91;81.64;98947.59;4235405;27;20082;-71
2022/08/25 00:03:36;;;;;;;12.05;5.53;;;;;;;15.88;81.98;98951.16;4235918;27;20107;-71
2022/08/25 00:05:37;;;;;;;9.90;6.05;;;;;;;15.86;81.95;98951.56;4236032;27;20122;-71
2022/08/25 00:07:37;;;;;;;11.10;6.18;;;;;;;15.85;81.87;98947.19;4235785;28;20520;-71
2022/08/25 00:09:37;;;;;;;7.57;5.47;;;;;;;15.84;81.84;98958.75;4234973;28;20126;-71
2022/08/25 00:11:39;;;;;;;12.68;6.05;;;;;;;15.78;81.64;98943.63;4236606;28;20432;-71
2022/08/25 00:13:42;;;;;;;7.97;5.65;;;;;;;15.78;81.43;98952.78;4234499;28;20050;-71
2022/08/25 00:15:43;;;;;;;8.20;6.00;;;;;;;15.76;80.95;98951.59;4235017;28;20043;-71
2022/08/25 00:17:44;;;;;;;7.28;5.50;;;;;;;15.71;81.05;98945.22;4235669;28;20043;-71
2022/08/25 00:19:44;;;;;;;8.25;5.32;;;;;;;15.70;80.56;98954.00;4235361;28;20053;-71
2022/08/25 00:21:45;;;;;;;10.40;6.30;;;;;;;15.67;80.48;98949.22;4235672;28;20057;-71
2022/08/25 00:23:46;;;;;;;7.45;5.38;;;;;;;15.65;80.80;98952.44;4234978;28;20151;-71
2022/08/25 00:25:47;;;;;;;8.80;5.53;;;;;;;15.64;80.70;98962.00;4235368;28;20487;-71
2022/08/25 00:27:50;;;;;;;12.60;5.97;;;;;;;15.63;80.96;98956.78;4236121;28;20047;-71
2022/08/25 00:29:50;;;;;;;7.50;5.45;;;;;;;15.57;80.58;98948.03;4234986;28;20107;-71
2022/08/25 00:31:52;;;;;;;8.13;5.72;;;;;;;15.53;81.42;98952.00;4235815;28;20047;-71
2022/08/25 00:33:53;;;;;;;9.00;5.72;;;;;;;15.52;81.69;98945.63;4235461;28;20662;-71
2022/08/25 00:35:55;;;;;;;8.82;5.63;;;;;;;15.50;81.94;98945.22;4236393;27;20105;-71
2022/08/25 00:37:55;;;;;;;9.65;5.78;;;;;;;15.48;82.30;98952.41;4235148;28;20423;-71
2022/08/25 00:39:57;;;;;;;6.13;5.38;;;;;;;15.46;82.75;98958.38;4235259;28;20082;-71
2022/08/25 00:41:58;;;;;;;8.07;4.97;;;;;;;15.44;82.58;98955.19;4236827;27;20047;-71
2022/08/25 00:44:00;;;;;;;7.85;6.45;;;;;;;15.41;83.19;98947.63;4239218;27;20172;-71
2022/08/25 00:46:01;;;;;;;6.72;5.32;;;;;;;15.36;82.66;98957.19;4238517;27;20197;-71
2022/08/25 00:48:02;;;;;;;12.02;6.38;;;;;;;15.24;81.02;98957.59;4238819;27;20128;-71
2022/08/25 00:50:07;;;;;;;9.38;5.50;;;;;;;15.23;80.91;98955.22;4238724;27;20039;-71
2022/08/25 00:52:14;;;;;;;11.43;6.00;;;;;;;15.16;80.63;98951.22;4238568;27;20034;-71
2022/08/25 00:54:21;;;;;;;11.55;6.43;;;;;;;15.14;81.45;98958.34;4239190;27;20042;-71
2022/08/25 00:56:23;;;;;;;10.23;6.85;;;;;;;15.09;81.93;98948.41;4238180;27;20043;-71
2022/08/25 00:58:26;;;;;;;7.73;5.90;;;;;;;15.11;82.14;98948.81;4238250;27;20237;-71
2022/08/25 01:00:41;;;;;;;11.15;6.53;;;;;;;15.07;82.01;98941.66;4238730;27;20284;-71
2022/08/25 01:02:42;;;;;;;7.05;5.93;;;;;;;15.06;81.86;98956.75;4238199;27;20491;-71
2022/08/25 01:04:44;;;;;;;8.35;5.90;;;;;;;15.05;82.29;98957.94;4237912;27;20404;-71
2022/08/25 01:06:47;;;;;;;7.30;5.70;;;;;;;15.01;83.41;98951.59;4238179;27;20043;-71
2022/08/25 01:08:47;;;;;;;8.82;7.10;;;;;;;14.96;84.92;98943.63;4237259;27;20062;-71
2022/08/25 01:10:49;;;;;;;9.85;6.57;;;;;;;14.94;85.57;98952.38;4238951;27;20039;-71
2022/08/25 01:12:54;;;;;;;10.88;6.38;;;;;;;14.93;85.28;98953.56;4238501;27;20497;-71
2022/08/25 01:14:55;;;;;;;8.60;6.32;;;;;;;14.93;85.34;98955.56;4238422;27;20444;-71
2022/08/25 01:16:57;;;;;;;8.43;6.38;;;;;;;14.93;85.60;98945.22;4238275;27;20051;-71
2022/08/25 01:18:59;;;;;;;8.02;6.32;;;;;;;14.98;85.53;98953.19;4236897;27;20051;-71
2022/08/25 01:20:59;;;;;;;10.93;6.68;;;;;;;14.91;84.42;98953.19;4238486;27;20418;-71
2022/08/25 01:23:00;;;;;;;8.70;6.25;;;;;;;14.89;83.80;98949.97;4237851;27;20068;-71
2022/08/25 01:25:06;;;;;;;10.02;6.95;;;;;;;14.78;84.81;98944.38;4238272;27;20074;-71
2022/08/25 01:27:08;;;;;;;6.55;5.30;;;;;;;14.71;85.06;98951.94;4238073;27;20134;-71
2022/08/25 01:29:20;;;;;;;8.77;5.95;;;;;;;14.65;84.10;98951.53;4237802;27;20383;-71
2022/08/25 01:31:21;;;;;;;12.40;6.18;;;;;;;14.59;84.70;98944.75;4238247;27;20032;-71
2022/08/25 01:33:22;;;;;;;7.40;6.00;;;;;;;14.57;85.33;98942.34;4238545;27;20054;-71
2022/08/25 01:35:23;;;;;;;7.05;6.00;;;;;;;14.56;86.02;98946.34;4237707;27;20078;-71
2022/08/25 01:37:23;;;;;;;11.57;7.38;;;;;;;14.51;86.70;98952.28;4237981;27;20100;-71
2022/08/25 01:39:25;;;;;;;11.65;6.72;;;;;;;14.51;86.92;98943.13;4237579;27;20163;-71
2022/08/25 01:41:28;;;;;;;8.07;6.47;;;;;;;14.49;87.15;98943.53;4238541;27;20412;-71
2022/08/25 01:43:37;;;;;;;12.60;7.30;;;;;;;14.52;86.53;98944.72;4237980;27;20085;-71
2022/08/25 01:45:40;;;;;;;10.07;8.32;;;;;;;14.51;86.93;98943.91;4237651;27;20453;-70
2022/08/25 01:47:40;;;;;;;8.02;6.85;;;;;;;14.49;87.08;98943.53;4238104;27;20073;-70
2022/08/25 01:49:41;;;;;;;8.30;6.75;;;;;;;14.47;86.91;98925.59;4237518;27;20075;-71
2022/08/25 01:51:46;;;;;;;10.80;8.50;;;;;;;14.43;88.42;98931.13;4237780;27;20050;-71
2022/08/25 01:53:47;;;;;;;11.85;8.70;;;;;;;14.41;88.79;98936.31;4237076;27;20474;-70
2022/08/25 01:55:50;;;;;;;12.38;8.35;;;;;;;14.43;88.63;98933.91;4237924;27;20053;-71
2022/08/25 01:57:51;;;;;;;10.48;7.63;;;;;;;14.40;88.82;98934.72;4237727;27;20051;-70
2022/08/25 01:59:52;;;;;;;8.18;6.93;;;;;;;14.38;89.06;98933.50;4237227;27;20424;-70
2022/08/25 02:01:52;;;;;;;9.88;7.38;;;;;;;14.40;87.40;98931.94;4237877;27;20043;-71
2022/08/25 02:03:55;;;;;;;10.43;7.18;;;;;;;14.43;86.67;98935.91;4237788;27;20046;-71
2022/08/25 02:05:56;;;;;;;;;;;;;;;14.44;88.04;98943.06;4237582;27;20062;-71
2022/08/25 02:07:56;;;;;;;11.23;7.85;;;;;;;14.42;87.73;98940.69;4237639;27;19911;-71
2022/08/25 02:09:56;;;;;;;11.35;8.10;;;;;;;14.44;85.75;98931.94;4237233;27;20545;-71
2022/08/25 02:11:58;;;;;;;9.82;7.63;;;;;;;14.45;86.56;98933.53;4237746;27;20687;-70
2022/08/25 02:13:58;;;;;;;11.85;8.07;;;;;;;14.42;86.30;98928.75;4237397;27;20313;-71
2022/08/25 02:16:00;;;;;;;11.70;7.80;;;;;;;14.39;86.72;98930.31;4237837;27;20051;-70
2022/08/25 02:18:00;;;;;;;9.60;7.30;;;;;;;14.41;86.12;98925.19;4238036;27;20035;-71
2022/08/25 02:20:01;;;;;;;11.13;7.95;;;;;;;14.39;87.08;98926.72;4236535;27;20360;-71
2022/08/25 02:22:01;;;;;;;12.38;8.23;;;;;;;14.35;87.60;98926.75;4237048;27;20530;-71
2022/08/25 02:24:03;;;;;;;12.20;7.93;;;;;;;14.39;88.31;98940.66;4237714;27;20027;-70
2022/08/25 02:26:03;;;;;;;7.97;7.18;;;;;;;14.34;88.66;98934.28;4237154;27;20183;-71
2022/08/25 02:28:05;;;;;;;12.40;8.50;;;;;;;14.38;88.87;98933.50;4237550;27;20489;-70
2022/08/25 02:30:06;;;;;;;9.85;7.78;;;;;;;14.33;90.20;98926.34;4236676;27;20127;-71
2022/08/25 02:32:07;;;;;;;14.48;8.27;;;;;;;14.33;90.67;98935.47;4237762;27;20478;-71
2022/08/25 02:34:09;;;;;;;13.13;7.32;;;;;;;14.37;89.00;98931.91;4236923;27;20051;-71
2022/08/25 02:36:09;;;;;;;9.25;7.32;;;;;;;14.42;86.45;98929.56;4237137;27;20563;-71
2022/08/25 02:38:09;;;;;;;9.48;7.22;;;;;;;14.40;87.61;98928.31;4237501;27;20072;-71
2022/08/25 02:40:10;;;;;;;10.32;7.90;;;;;;;14.35;87.87;98929.53;4236707;27;20394;-71
2022/08/25 02:42:11;;;;;;;8.75;6.68;;;;;;;14.30;87.64;98927.09;4237030;27;20032;-71
2022/08/25 02:44:11;;;;;;;10.63;7.40;;;;;;;14.26;87.96;98929.09;4236894;27;20355;-71
2022/08/25 02:46:11;;;;;;;12.10;7.57;;;;;;;14.24;87.42;98923.13;4236578;27;20027;-71
2022/08/25 02:48:12;;;;;;;12.90;7.78;;;;;;;14.27;88.31;98936.25;4236804;27;20054;-71
2022/08/25 02:50:12;;;;;;;10.18;7.40;;;;;;;14.29;87.02;98922.72;4236237;27;20057;-70
2022/08/25 02:52:13;;;;;;;9.63;8.27;;;;;;;14.31;87.37;98923.94;4237427;27;20484;-71
2022/08/25 02:54:14;;;;;;;15.13;9.05;;;;;;;14.30;89.08;98919.56;4218325;28;20034;-71
2022/08/25 02:56:17;;;;;;;17.05;8.38;;;;;;;14.28;90.69;98918.34;4236699;27;20038;-71
2022/08/25 02:58:18;;;;;;;12.93;8.18;;;;;;;14.26;91.33;98920.75;4236808;27;20268;-71
2022/08/25 03:00:18;;;;;;;15.52;8.88;;;;;;;14.20;91.19;98919.53;4236776;27;20638;-71
2022/08/25 03:02:19;;;;;;;13.70;8.10;;;;;;;14.16;90.20;98919.53;4236962;27;20031;-70
2022/08/25 03:04:19;;;;;;;12.35;8.45;;;;;;;14.11;90.27;98914.31;4235781;27;20460;-71
2022/08/25 03:06:22;;;;;;;11.18;7.93;;;;;;;14.08;90.67;98917.09;4236492;27;20411;-71
2022/08/25 03:08:23;;;;;;;10.30;7.18;;;;;;;14.02;91.13;98917.47;4236541;27;20039;-71
2022/08/25 03:10:24;;;;;;;12.13;7.28;;;;;;;14.00;90.71;98917.06;4236479;27;20074;-71
2022/08/25 03:12:24;;;;;;;9.77;8.02;;;;;;;13.94;90.68;98923.38;4235667;27;20054;-71
2022/08/25 03:14:24;;;;;;;11.65;7.00;;;;;;;13.90;90.40;98926.16;4236909;27;20413;-71
2022/08/25 03:16:25;;;;;;;9.30;7.30;;;;;;;13.88;89.95;98914.59;4236375;27;20039;-71
2022/08/25 03:18:26;;;;;;;10.60;7.35;;;;;;;13.93;87.05;98910.66;4235439;27;20090;-71
2022/08/25 03:20:27;;;;;;;13.05;7.72;;;;;;;13.90;88.64;98911.41;4236861;27;20039;-70
2022/08/25 03:22:28;;;;;;;12.60;7.47;;;;;;;13.85;89.30;98904.25;4236236;27;20047;-70
2022/08/25 03:24:28;;;;;;;10.18;7.57;;;;;;;13.77;90.25;98903.44;4236221;27;20071;-71
2022/08/25 03:28:48;;;;;;;10.77;7.30;;;;;;;13.83;87.38;98908.63;4235690;27;20099;-70
2022/08/25 03:30:48;;;;;;;9.80;7.22;;;;;;;13.79;87.24;98911.38;4236570;27;20039;-70
2022/08/25 03:32:48;;;;;;;9.38;6.63;;;;;;;13.75;88.38;98903.03;4236378;27;20054;-71
2022/08/25 03:34:50;;;;;;;11.52;7.15;;;;;;;13.73;88.98;98901.81;4235742;27;20063;-70
2022/08/25 03:36:52;;;;;;;9.52;7.20;;;;;;;13.74;88.13;98911.75;4237202;27;20475;-71
2022/08/25 03:38:53;;;;;;;16.65;7.45;;;;;;;13.72;88.23;98908.53;4235779;27;20309;-70
2022/08/25 03:40:53;;;;;;;9.07;6.70;;;;;;;13.69;88.52;98906.56;4236303;27;20062;-70
2022/08/25 03:42:55;;;;;;;9.38;7.00;;;;;;;13.65;89.46;98911.28;4236274;27;20043;-70
2022/08/25 03:44:55;;;;;;;11.82;6.78;;;;;;;13.65;88.63;98912.09;4235922;27;20051;-70
2022/08/25 03:46:56;;;;;;;12.23;6.90;;;;;;;13.66;88.50;98905.34;4235800;27;20317;-70
2022/08/25 03:48:59;;;;;;;12.70;6.85;;;;;;;13.65;87.50;98902.94;4235890;27;20216;-70
2022/08/25 03:50:59;;;;;;;;;;;;;;;13.71;86.59;98909.75;4236420;27;20043;-71
2022/08/25 03:52:59;;;;;;;11.80;7.60;;;;;;;13.64;88.24;98910.50;4235943;27;19911;-70
2022/08/25 03:55:02;;;;;;;9.48;6.80;;;;;;;13.65;88.71;98911.28;4236021;27;20119;-70
2022/08/25 03:57:03;;;;;;;11.52;8.00;;;;;;;13.64;88.63;98907.72;4235696;27;20102;-70
2022/08/25 03:59:03;;;;;;;12.65;7.15;;;;;;;13.58;89.67;98909.28;4235085;27;20058;-70
2022/08/25 04:01:04;;;;;;;18.70;7.85;;;;;;;13.58;88.39;98912.06;4233955;27;20041;-70
2022/08/25 04:03:04;;;;;;;13.15;7.20;;;;;;;13.57;88.08;98916.03;4234007;27;20543;-70
2022/08/25 04:05:06;;;;;;;13.10;7.95;;;;;;;13.55;88.03;98910.03;4235428;27;20043;-70
2022/08/25 04:07:06;;;;;;;8.82;7.35;;;;;;;13.58;88.37;98909.28;4235760;27;20055;-71
2022/08/25 04:09:07;;;;;;;13.77;7.22;;;;;;;13.56;88.57;98911.63;4235124;27;20134;-70
2022/08/25 04:11:10;;;;;;;15.70;7.45;;;;;;;13.56;88.47;98919.16;4236045;28;20047;-70
2022/08/25 04:13:11;;;;;;;13.48;8.27;;;;;;;13.51;88.86;98911.22;4235854;28;20047;-70
2022/08/25 04:15:11;;;;;;;18.95;8.23;;;;;;;13.51;89.08;98922.34;4232282;28;20065;-70
2022/08/25 04:17:11;;;;;;;13.18;7.25;;;;;;;13.42;89.78;98915.13;4236423;27;20749;-70
2022/08/25 04:19:12;;;;;;;17.95;7.68;;;;;;;13.39;88.88;98915.09;4235995;27;20575;-70
2022/08/25 04:21:13;;;;;;;9.45;7.20;;;;;;;13.36;89.26;98913.09;4237323;27;20067;-70
2022/08/25 04:23:13;;;;;;;18.90;8.63;;;;;;;13.36;88.60;98915.88;4238664;27;20027;-70
2022/08/25 04:25:13;;;;;;;12.77;6.95;;;;;;;13.38;87.49;98908.72;4239342;27;20043;-71
2022/08/25 04:27:14;;;;;;;11.40;7.88;;;;;;;13.38;88.39;98911.50;4238780;27;20031;-70
2022/08/25 04:29:17;;;;;;;18.75;7.55;;;;;;;13.39;88.01;98907.53;4237438;27;20170;-70
2022/08/25 04:31:19;;;;;;;21.80;7.70;;;;;;;13.41;88.09;98904.41;4238688;27;20442;-70
2022/08/25 04:33:19;;;;;;;12.05;7.32;;;;;;;13.47;86.85;98902.84;4239188;27;20031;-70
2022/08/25 04:35:21;;;;;;;12.77;7.18;;;;;;;13.60;85.92;98900.53;4238472;27;20308;-70
2022/08/25 04:37:21;;;;;;;9.45;7.28;;;;;;;13.62;86.88;98903.72;4219471;28;20304;-70
2022/08/25 04:39:22;;;;;;;12.30;7.13;;;;;;;13.56;88.05;98900.50;4238235;27;20039;-70
2022/08/25 04:41:23;;;;;;;15.05;8.07;;;;;;;13.52;88.67;98894.16;4238116;27;20198;-70
2022/08/25 04:43:24;;;;;;;15.32;8.13;;;;;;;13.52;87.67;98896.13;4239004;27;20039;-70
2022/08/25 04:45:24;;;;;;;12.75;7.35;;;;;;;13.57;86.28;98896.56;4238155;27;20505;-70
2022/08/25 04:47:25;;;;;;;9.40;7.15;;;;;;;13.57;87.99;98901.31;4239147;27;20035;-70
2022/08/25 04:49:26;;;;;;;13.07;7.70;;;;;;;13.56;88.58;98905.28;4236716;27;20232;-70
2022/08/25 04:51:33;;;;;;;19.67;8.43;;;;;;;13.55;89.17;98907.25;4239516;27;20039;-70
2022/08/25 04:53:34;;;;;;;10.20;8.02;;;;;;;13.54;89.34;98902.88;4239355;27;20436;-70
2022/08/25 04:55:43;;;;;;;12.35;8.13;;;;;;;13.55;89.53;98901.69;4238757;27;20043;-70
2022/08/25 04:57:43;;;;;;;11.88;7.60;;;;;;;13.55;89.98;98910.03;4155972;27;20737;-70
2022/08/25 04:59:43;;;;;;;11.77;7.75;;;;;;;13.56;90.00;98908.06;4237396;27;20035;-70
2022/08/25 05:01:48;;;;;;;12.23;7.85;;;;;;;13.55;91.02;98909.25;4238421;27;20043;-70
2022/08/25 05:03:56;;;;;;;10.77;7.70;;;;;;;13.55;91.95;98910.03;4237707;27;20496;-70
2022/08/25 05:05:56;;;;;;;10.88;8.57;;;;;;;13.58;92.72;98911.25;4239171;27;20058;-70
2022/08/25 05:07:58;;;;;;;9.80;8.57;;;;;;;13.60;92.56;98914.44;4220950;28;20580;-70
2022/08/25 05:09:59;;;;;;;11.52;8.52;;;;;;;13.65;92.37;98916.84;4238804;27;20550;-70
2022/08/25 05:12:01;;;;;;;12.50;8.68;;;;;;;13.70;92.68;98917.28;4238832;27;20081;-70
2022/08/25 05:14:02;;;;;;;11.00;8.25;;;;;;;13.74;91.83;98917.31;4238179;27;20421;-71
2022/08/25 05:16:03;;;;;;;11.57;9.15;;;;;;;13.83;92.06;98922.53;4239040;27;20596;-71
2022/08/25 05:18:04;;;;;;;12.15;8.68;;;;;;;13.90;89.51;98926.16;4237351;27;20536;-70
2022/08/25 05:20:04;;;;;;;17.73;9.45;;;;;;;13.94;89.87;98917.81;4234663;27;20050;-70
2022/08/25 05:22:05;;;;;;;10.98;8.45;;;;;;;13.95;89.89;98914.63;4238183;27;20542;-71
2022/08/25 05:24:06;;;;;;;10.63;8.45;;;;;;;14.00;88.87;98913.47;4238712;27;20031;-70
2022/08/25 05:26:13;;;;;;;13.55;8.88;;;;;;;14.08;88.77;98914.31;4237566;27;20059;-70
2022/08/25 05:28:14;;;;;;;13.55;8.07;;;;;;;14.12;88.57;98921.47;4237181;27;20039;-70
2022/08/25 05:30:14;;;;;;;13.30;9.07;;;;;;;14.17;89.35;98921.09;4234197;27;20027;-70
2022/08/25 05:32:15;;;;;;;15.68;10.50;;;;;;;14.21;90.28;98924.69;4236401;27;20050;-70
2022/08/25 05:34:17;;;;;;;17.05;9.50;;;;;;;14.26;89.24;98921.53;4236440;27;20107;-70
2022/08/25 05:36:18;;;;;;;20.25;9.88;;;;;;;14.32;89.51;98922.75;4236858;27;20173;-71
2022/08/25 05:38:19;;;;;;;11.98;9.57;;;;;;;14.39;88.38;98919.19;4236662;27;20019;-70
2022/08/25 05:40:20;;;;;;;15.23;10.10;;;;;;;14.46;89.34;98908.09;4237520;27;20192;-70
2022/08/25 05:42:21;;;;;;;15.52;10.52;;;;;;;14.56;90.44;98912.91;4237159;27;20027;-70
2022/08/25 05:44:22;;;;;;;15.52;10.73;;;;;;;14.63;90.20;98916.91;4236822;27;20069;-71
2022/08/25 05:46:22;;;;;;;18.40;11.18;;;;;;;14.68;90.14;98908.16;4237813;27;20482;-71
2022/08/25 05:48:24;;;;;;;18.33;11.02;;;;;;;14.76;89.92;98907.78;4238232;27;20532;-70
2022/08/25 05:50:24;;;;;;;15.38;10.13;;;;;;;14.79;89.11;98903.41;4238191;27;20398;-71
2022/08/25 05:52:26;;;;;;;15.65;9.02;;;;;;;14.82;86.29;98894.28;4238501;27;20429;-71
2022/08/25 05:54:27;;;;;;;14.85;9.57;;;;;;;14.84;85.77;98894.66;4238404;27;20043;-71
2022/08/25 05:56:27;;;;;;;12.57;9.30;;;;;;;14.92;84.96;98896.25;4238706;27;20569;-70
2022/08/25 05:58:28;;;;;;;16.80;9.90;;;;;;;15.01;85.56;98899.44;4237307;27;20042;-70
2022/08/25 06:00:29;;;;;;;13.43;9.38;;;;;;;15.08;85.15;98899.44;4238681;27;20092;-70
2022/08/25 06:02:47;;;;;;;13.45;9.30;;;;;;;15.15;83.60;98907.81;4238765;27;20034;-70
2022/08/25 06:04:47;;;;;;;14.30;8.75;;;;;;;15.25;83.27;98908.22;4238490;27;20088;-71
2022/08/25 06:06:48;;;;;;;15.52;9.55;;;;;;;15.29;84.96;98904.22;4237893;27;20039;-71
2022/08/25 06:08:49;;;;;;;11.38;8.93;;;;;;;15.34;83.96;98897.44;4237849;27;20054;-70
2022/08/25 06:10:52;;;;;;;12.68;9.18;;;;;;;15.39;84.28;98897.03;4238191;27;20051;-70
2022/08/25 06:12:52;;;;;;;13.52;10.68;;;;;;;15.46;87.32;98892.25;4237629;27;20035;-70
2022/08/25 06:14:53;;;;;;;14.82;10.65;;;;;;;15.52;87.28;98898.22;4237483;27;20054;-70
2022/08/25 06:16:53;;;;;;;12.45;9.70;;;;;;;15.57;85.65;98892.25;4238808;27;20066;-70
2022/08/25 06:18:54;;;;;;;18.63;10.20;;;;;;;15.65;83.72;98893.84;4237181;27;20130;-70
2022/08/25 06:20:54;;;;;;;15.30;10.02;;;;;;;15.69;83.17;98897.41;4237633;27;20074;-70
2022/08/25 06:22:56;;;;;;;11.73;10.45;;;;;;;15.79;84.66;98898.56;4238200;27;20043;-70
2022/08/25 06:24:56;;;;;;;13.52;10.30;;;;;;;15.83;84.75;98895.78;4237576;27;20478;-71
2022/08/25 06:26:57;;;;;;;13.18;9.60;;;;;;;15.90;83.53;98906.94;4237645;27;20047;-71
2022/08/25 06:28:57;;;;;;;19.33;10.35;;;;;;;15.99;82.76;98910.09;4237800;27;20062;-70
2022/08/25 06:30:59;;;;;;;22.65;10.25;;;;;;;16.12;83.64;98913.22;4237976;27;20074;-70
2022/08/25 06:33:00;;;;;;;34.75;15.25;;;;;;;16.22;86.22;98907.63;4237971;27;20043;-71
2022/08/25 06:35:05;;;;;;;21.42;12.20;;;;;;;16.35;87.08;98904.34;4237638;27;20043;-71
2022/08/25 06:37:05;;;;;;;17.23;11.43;;;;;;;16.40;87.83;98890.78;4237595;27;20067;-71
2022/08/25 06:39:07;;;;;;;21.35;13.23;;;;;;;16.48;87.98;98899.91;4236930;27;20050;-71
2022/08/25 06:41:09;;;;;;;19.80;12.60;;;;;;;16.56;87.80;98891.09;4237213;27;20051;-71
2022/08/25 06:43:09;;;;;;;28.95;13.80;;;;;;;16.65;87.72;98889.84;4237663;27;20317;-71
2022/08/25 06:45:10;;;;;;;20.50;13.13;;;;;;;16.72;87.31;98887.03;4237654;27;20844;-71
2022/08/25 06:47:10;;;;;;;15.85;11.05;;;;;;;16.78;86.94;98888.16;4237605;27;20122;-71
2022/08/25 06:49:11;;;;;;;17.10;12.50;;;;;;;16.85;85.24;98886.13;4236887;27;20040;-71
2022/08/25 06:51:14;;;;;;;23.92;12.65;;;;;;;16.95;86.01;98875.25;4237632;27;20054;-71
2022/08/25 06:53:14;;;;;;;24.73;13.63;;;;;;;17.04;86.96;98870.00;4237466;27;20046;-71
2022/08/25 06:55:15;;;;;;;19.25;12.38;;;;;;;17.10;86.15;98866.34;4237313;27;20047;-70
2022/08/25 06:57:15;;;;;;;24.17;13.80;;;;;;;17.22;86.29;98881.84;4236999;27;20415;-70
2022/08/25 06:59:16;;;;;;;16.25;13.30;;;;;;;17.30;86.36;98871.41;4237147;27;20345;-70
2022/08/25 07:01:22;;;;;;;17.40;11.50;;;;;;;17.38;85.51;98870.91;4237488;27;20035;-70
2022/08/25 07:03:22;;;;;;;15.43;11.55;;;;;;;17.49;85.14;98873.59;4237240;27;20640;-70
2022/08/25 07:05:22;;;;;;;17.17;11.50;;;;;;;17.57;84.95;98877.13;4237116;27;20043;-70
2022/08/25 07:07:23;;;;;;;16.85;10.77;;;;;;;17.64;83.33;98886.22;4237322;27;20494;-71
2022/08/25 07:09:23;;;;;;;17.38;12.75;;;;;;;17.79;83.73;98881.31;4236865;27;20040;-71
2022/08/25 07:11:24;;;;;;;21.17;14.63;;;;;;;17.94;85.10;98882.72;4236881;27;20743;-71
2022/08/25 07:13:24;;;;;;;19.13;12.80;;;;;;;18.08;83.29;98890.16;4237484;27;20035;-71
2022/08/25 07:15:25;;;;;;;17.63;12.65;;;;;;;18.19;83.69;98887.22;4237356;27;20079;-71
2022/08/25 07:17:26;;;;;;;17.85;14.00;;;;;;;18.34;84.44;98885.81;4236693;27;20050;-71
2022/08/25 07:19:26;;;;;;;18.08;13.32;;;;;;;18.46;84.49;98884.50;4236413;27;20043;-71
2022/08/25 07:21:29;;;;;;;18.42;14.00;;;;;;;18.55;84.59;98878.38;4237538;27;20045;-71
2022/08/25 07:23:29;;;;;;;21.90;13.20;;;;;;;18.70;83.85;98879.75;4236888;27;20079;-71
2022/08/25 07:25:29;;;;;;;18.70;15.10;;;;;;;18.78;83.10;98868.03;4236924;27;20763;-71
2022/08/25 07:27:30;;;;;;;20.33;14.65;;;;;;;18.87;82.67;98863.91;4236759;27;20035;-71
2022/08/25 07:29:32;;;;;;;21.02;13.60;;;;;;;18.97;83.05;98863.72;4236473;27;20396;-71
2022/08/25 07:31:33;;;;;;;21.55;13.77;;;;;;;19.10;82.38;98872.31;4236990;27;20047;-71
2022/08/25 07:33:33;;;;;;;24.45;14.25;;;;;;;19.20;81.45;98876.97;4236397;27;20096;-71
2022/08/25 07:35:35;;;;;;;14.90;12.30;;;;;;;19.21;77.40;98872.16;4236679;27;20309;-71
2022/08/25 07:37:38;;;;;;;21.17;13.82;;;;;;;19.29;79.03;98871.59;4237833;27;20031;-71
2022/08/25 07:39:38;;;;;;;17.88;13.40;;;;;;;19.39;80.52;98877.44;4235563;27;20444;-71
2022/08/25 07:41:41;;;;;;;19.52;13.93;;;;;;;19.41;79.46;98875.78;4236706;27;20091;-71
2022/08/25 07:43:41;;;;;;;19.25;13.00;;;;;;;19.50;79.09;98866.81;4236606;27;20047;-71
2022/08/25 07:45:42;;;;;;;17.83;12.80;;;;;;;19.66;80.32;98872.56;4237025;27;20042;-71
2022/08/25 07:47:42;;;;;;;17.33;12.45;;;;;;;19.79;79.37;98859.50;4236327;27;20535;-71
2022/08/25 07:49:42;;;;;;;19.35;11.73;;;;;;;19.90;79.18;98862.06;4236443;27;20035;-71
2022/08/25 07:51:45;;;;;;;17.55;12.15;;;;;;;20.01;77.32;98868.25;4236273;27;20100;-71
2022/08/25 07:53:45;;;;;;;25.42;14.57;;;;;;;20.10;79.07;98862.06;4236150;27;20122;-71
2022/08/25 07:55:45;;;;;;;19.55;13.73;;;;;;;20.20;79.28;98861.88;4236513;27;20462;-71
2022/08/25 07:57:46;;;;;;;18.73;13.13;;;;;;;20.30;79.96;98857.22;4236501;27;20070;-71
2022/08/25 07:59:47;;;;;;;18.05;13.52;;;;;;;20.42;79.03;98864.19;4236261;27;20043;-71
2022/08/25 08:01:47;;;;;;;18.58;12.63;;;;;;;20.50;78.39;98859.25;4236483;27;20068;-71
2022/08/25 08:03:48;;;;;;;18.10;13.20;;;;;;;20.62;79.45;98859.38;4235300;27;20054;-71
2022/08/25 08:05:49;;;;;;;19.00;12.73;;;;;;;20.73;79.25;98856.28;4237335;27;20047;-70
2022/08/25 08:07:51;;;;;;;24.60;13.75;;;;;;;20.81;78.92;98854.91;4236131;27;20116;-71
2022/08/25 08:09:52;;;;;;;18.90;11.45;;;;;;;20.83;77.91;98844.00;4235773;27;20138;-71
2022/08/25 08:11:52;;;;;;;15.85;12.05;;;;;;;20.87;76.64;98847.53;4236306;28;20039;-71
2022/08/25 08:13:55;;;;;;;27.70;12.50;;;;;;;20.85;76.46;98835.94;4236576;28;20039;-71
2022/08/25 08:15:55;;;;;;;;;;;;;;;20.88;76.26;98837.84;4236866;28;20050;-71
2022/08/25 08:17:57;;;;;;;20.67;13.20;;;;;;;20.86;77.22;98843.13;4235994;28;20354;-71
2022/08/25 08:19:58;;;;;;;20.08;12.27;;;;;;;20.95;77.36;98845.34;4235746;28;20774;-70
2022/08/25 08:21:58;;;;;;;19.33;12.10;;;;;;;20.96;75.16;98842.06;4236699;28;20040;-70
2022/08/25 08:23:59;;;;;;;16.20;11.90;;;;;;;20.97;75.92;98837.25;4235935;28;20080;-71
2022/08/25 08:25:59;;;;;;;17.60;11.77;;;;;;;21.07;76.45;98841.81;4217659;28;20051;-71
2022/08/25 08:27:59;;;;;;;16.85;13.15;;;;;;;21.17;75.91;98846.38;4237175;28;20055;-71
2022/08/25 08:30:01;;;;;;;14.18;11.40;;;;;;;21.33;77.29;98851.22;4235047;28;20184;-71
2022/08/25 08:32:04;;;;;;;17.67;11.65;;;;;;;21.50;74.28;98847.16;4235702;28;20047;-72
2022/08/25 08:34:05;;;;;;;15.63;11.88;;;;;;;21.62;74.19;98845.63;4236081;28;20497;-71
2022/08/25 08:36:09;;;;;;;16.33;12.27;;;;;;;21.73;73.93;98840.50;4237456;27;20110;-71
2022/08/25 08:38:11;;;;;;;22.48;12.40;;;;;;;21.79;74.53;98847.16;4235737;28;20088;-71
2022/08/25 08:40:14;;;;;;;17.00;12.23;;;;;;;21.91;74.94;98848.44;4235726;28;20049;-72
2022/08/25 08:42:29;;;;;;;24.48;12.65;;;;;;;22.00;74.62;98844.97;4236299;28;20481;-72
2022/08/25 08:44:41;;;;;;;15.00;12.88;;;;;;;22.08;71.41;98841.53;4235148;28;20043;-72
2022/08/25 08:47:04;;;;;;;19.88;12.23;;;;;;;22.18;71.86;98836.03;4236151;28;20047;-72
2022/08/25 08:49:21;;;;;;;19.17;12.23;;;;;;;22.24;72.83;98831.41;4235496;28;20901;-71
2022/08/25 08:51:29;;;;;;;17.23;11.88;;;;;;;22.35;73.09;98829.88;4235094;28;20039;-71
2022/08/25 08:53:34;;;;;;;17.08;12.27;;;;;;;22.41;72.35;98833.69;4235683;28;20198;-71
2022/08/25 08:55:37;;;;;;;19.38;11.98;;;;;;;22.51;72.34;98836.63;4236106;28;20375;-71
2022/08/25 08:57:45;;;;;;;17.42;11.93;;;;;;;22.59;72.39;98829.53;4236124;28;20043;-71
2022/08/25 08:59:50;;;;;;;16.52;11.77;;;;;;;22.70;71.99;98839.25;4235147;28;20096;-71
2022/08/25 09:01:58;;;;;;;17.27;11.98;;;;;;;22.77;71.54;98843.88;4236207;28;20043;-71
2022/08/25 09:04:07;;;;;;;17.50;12.02;;;;;;;22.98;71.96;98839.59;4238947;27;20049;-71
2022/08/25 09:06:16;;;;;;;15.05;11.70;;;;;;;23.18;70.58;98831.66;4238957;27;20513;-71
2022/08/25 09:08:17;;;;;;;21.02;13.10;;;;;;;23.33;70.28;98826.31;4238953;27;20723;-72
2022/08/25 09:10:18;;;;;;;13.50;11.38;;;;;;;23.40;68.67;98828.09;4239276;27;20194;-72
2022/08/25 09:12:32;;;;;;;26.38;11.68;;;;;;;23.55;69.88;98834.81;4239171;27;20763;-71
2022/08/25 09:15:21;;;;;;;17.67;11.85;;;;;;;23.70;68.92;98830.28;4239065;27;20035;-71
2022/08/25 09:17:40;;;;;;;17.33;11.20;;;;;;;23.79;68.16;98827.53;4169123;28;20520;-71
2022/08/25 09:19:52;;;;;;;18.20;11.05;;;;;;;23.88;68.54;98831.66;4216527;27;20047;-71
2022/08/25 09:22:03;;;;;;;15.10;11.90;;;;;;;24.03;67.79;98816.53;4238011;27;20328;-71
2022/08/25 09:24:45;;;;;;;17.50;11.50;;;;;;;24.08;66.58;98815.97;4238446;27;20088;-72
2022/08/25 09:27:02;;;;;;;15.93;11.77;;;;;;;24.28;66.34;98820.47;4209881;28;20378;-72
2022/08/25 09:29:11;;;;;;;17.60;11.40;;;;;;;24.35;65.37;98823.06;4238292;27;20092;-72
2022/08/25 09:31:22;;;;;;;18.30;12.32;;;;;;;24.38;65.91;98828.56;4238868;27;20039;-72